createdAt,value
2023-03-29T00:00:15.892Z,68.73
2023-03-29T00:03:04.419Z,68.81
2023-03-29T00:05:35.324Z,68.93
2023-03-29T00:08:04.388Z,68.83
2023-03-29T00:10:34.011Z,68.91
2023-03-29T00:13:02.873Z,68.80
2023-03-29T00:15:31.381Z,68.67
2023-03-29T00:17:59.317Z,68.70
2023-03-29T00:20:28.910Z,68.71
2023-03-29T00:22:56.865Z,68.93
2023-03-29T00:25:24.771Z,68.80
2023-03-29T00:27:52.502Z,68.83
2023-03-29T00:30:20.453Z,68.89
2023-03-29T00:32:48.314Z,69.09
2023-03-29T00:35:16.685Z,69.08
2023-03-29T00:37:47.295Z,69.06
2023-03-29T00:40:15.704Z,69.05
2023-03-29T00:42:46.876Z,69.06
2023-03-29T00:45:25.398Z,69.07
2023-03-29T00:47:57.509Z,69.13
2023-03-29T00:50:53.650Z,69.22
2023-03-29T00:53:36.556Z,69.30
2023-03-29T00:56:24.193Z,69.81
2023-03-29T00:59:13.574Z,69.48
2023-03-29T01:01:54.374Z,69.92
2023-03-29T01:04:29.650Z,69.85
2023-03-29T01:07:03.275Z,69.75
2023-03-29T01:09:35.149Z,70.00
2023-03-29T01:12:05.270Z,70.08
2023-03-29T01:14:46.015Z,70.22
2023-03-29T01:17:13.906Z,70.67
2023-03-29T01:19:53.983Z,70.65
2023-03-29T01:22:22.641Z,70.69
2023-03-29T01:25:03.422Z,70.84
2023-03-29T01:27:42.900Z,70.93
2023-03-29T01:30:19.650Z,70.88
2023-03-29T01:33:23.520Z,71.00
2023-03-29T01:36:08.263Z,71.27
2023-03-29T01:38:56.883Z,71.47
2023-03-29T01:41:50.173Z,71.77
2023-03-29T01:44:25.705Z,72.12
2023-03-29T01:47:02.818Z,72.56
2023-03-29T01:50:08.365Z,72.67
2023-03-29T01:52:43.047Z,72.69
2023-03-29T01:55:15.169Z,72.82
2023-03-29T01:57:45.589Z,73.48
2023-03-29T02:00:21.350Z,73.35
2023-03-29T02:02:52.303Z,72.85
2023-03-29T02:05:23.281Z,73.25
2023-03-29T02:07:53.323Z,72.96
2023-03-29T02:10:23.531Z,72.86
2023-03-29T02:12:51.447Z,72.80
2023-03-29T02:15:21.088Z,72.94
2023-03-29T02:17:49.644Z,73.09
2023-03-29T02:20:25.502Z,73.27
2023-03-29T02:23:09.033Z,73.68
2023-03-29T02:25:38.016Z,73.91
2023-03-29T02:28:06.958Z,74.36
2023-03-29T02:30:44.656Z,74.05
2023-03-29T02:33:18.348Z,74.03
2023-03-29T02:35:59.227Z,74.19
2023-03-29T02:38:28.196Z,74.70
2023-03-29T02:40:58.979Z,74.44
2023-03-29T02:43:29.056Z,74.34
2023-03-29T02:45:57.175Z,74.33
2023-03-29T02:48:28.476Z,74.47
2023-03-29T02:51:01.289Z,74.23
2023-03-29T02:53:38.262Z,74.25
2023-03-29T02:56:06.949Z,74.33
2023-03-29T02:58:36.855Z,74.34
2023-03-29T03:01:07.044Z,74.35
2023-03-29T03:03:35.964Z,74.39
2023-03-29T03:06:04.423Z,74.42
2023-03-29T03:08:32.405Z,74.23
2023-03-29T03:11:00.461Z,74.34
2023-03-29T03:13:28.428Z,74.21
2023-03-29T03:15:56.324Z,74.45
2023-03-29T03:18:24.382Z,74.79
2023-03-29T03:20:57.451Z,74.92
2023-03-29T03:23:25.524Z,75.41
2023-03-29T03:25:53.590Z,75.54
2023-03-29T03:28:22.274Z,76.03
2023-03-29T03:30:50.560Z,75.53
2023-03-29T03:33:19.950Z,75.66
2023-03-29T03:35:48.191Z,75.59
2023-03-29T03:38:16.811Z,75.92
2023-03-29T03:40:44.672Z,75.92
2023-03-29T03:43:12.750Z,75.99
2023-03-29T03:45:43.055Z,75.76
2023-03-29T03:48:10.927Z,75.79
2023-03-29T03:50:39.249Z,75.76
2023-03-29T03:53:07.612Z,75.92
2023-03-29T03:55:35.371Z,75.67
2023-03-29T03:58:03.158Z,75.77
2023-03-29T04:00:31.149Z,75.82
2023-03-29T04:02:59.055Z,75.93
2023-03-29T04:05:27.171Z,76.15
2023-03-29T04:07:56.176Z,76.68
2023-03-29T04:10:24.099Z,76.42
2023-03-29T04:12:51.921Z,77.18
2023-03-29T04:15:20.405Z,76.89
2023-03-29T04:17:48.229Z,77.17
2023-03-29T04:20:16.810Z,77.52
2023-03-29T04:22:44.578Z,77.34
2023-03-29T04:25:12.406Z,78.12
2023-03-29T04:27:40.587Z,78.23
2023-03-29T04:30:09.710Z,77.45
2023-03-29T04:32:37.762Z,77.37
2023-03-29T04:35:06.086Z,77.27
2023-03-29T04:37:34.387Z,77.51
2023-03-29T04:40:04.728Z,77.52
2023-03-29T04:42:32.683Z,77.47
2023-03-29T04:45:01.245Z,77.24
2023-03-29T04:47:30.093Z,77.14
2023-03-29T04:49:58.230Z,77.49
2023-03-29T04:52:26.710Z,77.45
2023-03-29T04:54:54.576Z,77.55
2023-03-29T04:57:22.407Z,77.89
2023-03-29T04:59:50.314Z,77.43
2023-03-29T05:02:18.274Z,77.25
2023-03-29T05:04:46.382Z,77.21
2023-03-29T05:07:15.747Z,77.16
2023-03-29T05:09:43.850Z,77.18
2023-03-29T05:12:12.006Z,77.27
2023-03-29T05:14:39.853Z,77.32
2023-03-29T05:17:08.346Z,77.03
2023-03-29T05:19:36.931Z,76.89
2023-03-29T05:22:04.775Z,77.75
2023-03-29T05:24:32.549Z,77.48
2023-03-29T05:27:00.371Z,77.05
2023-03-29T05:29:28.272Z,76.97
2023-03-29T05:31:56.072Z,77.15
2023-03-29T05:34:24.019Z,77.42
2023-03-29T05:36:52.078Z,76.93
2023-03-29T05:39:19.853Z,76.79
2023-03-29T05:41:47.733Z,77.05
2023-03-29T05:44:15.672Z,77.02
2023-03-29T05:46:43.433Z,76.69
2023-03-29T05:49:12.480Z,76.93
2023-03-29T05:51:42.178Z,76.62
2023-03-29T05:54:10.032Z,76.55
2023-03-29T05:56:38.277Z,76.64
2023-03-29T05:59:06.107Z,76.48
2023-03-29T06:01:34.624Z,76.40
2023-03-29T06:04:03.915Z,76.51
2023-03-29T06:06:32.184Z,76.58
2023-03-29T06:09:01.449Z,76.59
2023-03-29T06:11:29.472Z,76.45
2023-03-29T06:13:57.818Z,76.15
2023-03-29T06:16:26.309Z,75.59
2023-03-29T06:18:54.394Z,75.39
2023-03-29T06:21:23.079Z,75.47
2023-03-29T06:23:51.257Z,75.30
2023-03-29T06:26:20.245Z,75.05
2023-03-29T06:28:51.350Z,74.59
2023-03-29T06:31:21.171Z,74.06
2023-03-29T06:33:49.679Z,73.72
2023-03-29T06:36:17.575Z,73.45
2023-03-29T06:38:46.053Z,73.26
2023-03-29T06:41:14.931Z,73.16
2023-03-29T06:43:43.231Z,73.07
2023-03-29T06:46:12.380Z,72.63
2023-03-29T06:48:41.256Z,72.03
2023-03-29T06:51:09.164Z,71.94
2023-03-29T06:53:36.966Z,71.56
2023-03-29T06:56:09.302Z,71.36
2023-03-29T06:58:37.664Z,71.50
2023-03-29T07:01:07.200Z,71.36
2023-03-29T07:03:36.218Z,71.12
2023-03-29T07:06:09.897Z,71.03
2023-03-29T07:08:45.092Z,70.64
2023-03-29T07:11:15.097Z,70.81
2023-03-29T07:13:43.994Z,70.68
2023-03-29T07:16:13.938Z,69.69
2023-03-29T07:18:44.098Z,68.79
2023-03-29T07:21:13.445Z,69.20
2023-03-29T07:23:41.503Z,69.12
2023-03-29T07:26:10.553Z,68.93
2023-03-29T07:28:39.566Z,68.70
2023-03-29T07:31:12.077Z,67.73
2023-03-29T07:33:40.073Z,67.99
2023-03-29T07:36:09.322Z,68.01
2023-03-29T07:38:38.040Z,67.26
2023-03-29T07:41:06.985Z,66.69
2023-03-29T07:43:35.082Z,66.71
2023-03-29T07:46:04.997Z,65.83
2023-03-29T07:48:33.904Z,65.84
2023-03-29T07:51:02.226Z,64.45
2023-03-29T07:53:30.325Z,63.88
2023-03-29T07:55:58.191Z,64.06
2023-03-29T07:58:25.955Z,62.12
2023-03-29T08:00:53.814Z,62.34
2023-03-29T08:03:23.034Z,61.44
2023-03-29T08:05:51.698Z,59.17
2023-03-29T08:08:19.467Z,59.67
2023-03-29T08:10:47.287Z,59.23
2023-03-29T08:13:15.463Z,58.83
2023-03-29T08:15:46.382Z,59.47
2023-03-29T08:18:14.726Z,57.10
2023-03-29T08:20:42.838Z,57.42
2023-03-29T08:23:10.896Z,57.33
2023-03-29T08:25:38.773Z,55.79
2023-03-29T08:28:06.633Z,56.41
2023-03-29T08:30:34.616Z,53.59
2023-03-29T08:33:02.391Z,55.30
2023-03-29T08:35:30.134Z,53.53
2023-03-29T08:37:57.873Z,54.18
2023-03-29T08:40:30.156Z,54.05
2023-03-29T08:43:14.716Z,52.42
2023-03-29T08:45:55.180Z,52.02
2023-03-29T08:48:32.027Z,51.25
2023-03-29T08:51:08.648Z,50.15
2023-03-29T08:53:49.802Z,50.01
2023-03-29T08:56:26.555Z,50.83
2023-03-29T08:58:56.422Z,49.85
2023-03-29T09:01:28.058Z,45.97
2023-03-29T09:04:20.332Z,47.45
2023-03-29T09:06:48.942Z,45.88
2023-03-29T09:09:20.970Z,44.56
2023-03-29T09:12:07.458Z,46.06
2023-03-29T09:15:11.288Z,44.17
2023-03-29T09:18:03.269Z,46.19
2023-03-29T09:20:50.150Z,44.23
2023-03-29T09:23:28.938Z,45.16
2023-03-29T09:26:08.488Z,44.28
2023-03-29T09:28:40.370Z,44.28
2023-03-29T09:31:21.712Z,43.43
2023-03-29T09:33:57.694Z,43.63
2023-03-29T09:36:31.809Z,41.48
2023-03-29T09:39:00.392Z,44.34
2023-03-29T09:41:34.984Z,44.11
2023-03-29T09:44:12.731Z,43.54
2023-03-29T09:46:56.109Z,43.88
2023-03-29T09:49:30.074Z,43.28
2023-03-29T09:52:05.074Z,43.59
2023-03-29T09:54:33.151Z,44.85
2023-03-29T09:57:01.245Z,44.09
2023-03-29T09:59:29.347Z,44.50
2023-03-29T10:02:34.714Z,44.21
2023-03-29T10:05:09.937Z,44.53
2023-03-29T10:07:48.500Z,44.85
2023-03-29T10:10:29.448Z,44.05
2023-03-29T10:13:01.842Z,43.95
2023-03-29T10:15:30.996Z,43.97
2023-03-29T10:18:03.216Z,42.79
2023-03-29T10:20:36.261Z,43.99
2023-03-29T10:23:08.345Z,43.96
2023-03-29T10:25:42.969Z,43.41
2023-03-29T10:28:17.899Z,41.89
2023-03-29T10:30:52.837Z,42.90
2023-03-29T10:33:27.053Z,42.80
2023-03-29T10:35:57.770Z,42.91
2023-03-29T10:38:29.442Z,42.42
2023-03-29T10:41:16.111Z,42.25
2023-03-29T10:43:49.676Z,42.95
2023-03-29T10:46:22.485Z,42.92
2023-03-29T10:48:55.408Z,41.95
2023-03-29T10:51:25.369Z,40.52
2023-03-29T10:53:53.597Z,39.55
2023-03-29T10:56:41.546Z,41.13
2023-03-29T10:59:24.443Z,39.37
2023-03-29T11:01:54.981Z,39.67
2023-03-29T11:04:28.751Z,38.13
2023-03-29T11:07:22.830Z,36.97
2023-03-29T11:10:01.613Z,39.37
2023-03-29T11:12:51.055Z,37.53
2023-03-29T11:15:45.461Z,38.19
2023-03-29T11:18:28.514Z,37.14
2023-03-29T11:21:18.848Z,37.92
2023-03-29T11:23:49.272Z,38.38
2023-03-29T11:26:24.921Z,38.99
2023-03-29T11:29:21.732Z,37.49
2023-03-29T11:32:11.970Z,36.80
2023-03-29T11:34:42.286Z,35.17
2023-03-29T11:37:32.205Z,35.48
2023-03-29T11:40:17.932Z,36.74
2023-03-29T11:42:49.445Z,37.30
2023-03-29T11:45:27.378Z,36.64
2023-03-29T11:47:57.572Z,34.67
2023-03-29T11:50:30.940Z,34.04
2023-03-29T11:53:16.251Z,33.92
2023-03-29T11:55:46.046Z,35.16
2023-03-29T11:58:38.789Z,34.95
2023-03-29T12:01:17.975Z,35.60
2023-03-29T12:03:56.036Z,36.28
2023-03-29T12:06:30.398Z,36.24
2023-03-29T12:09:37.793Z,36.81
2023-03-29T12:12:21.837Z,34.24
2023-03-29T12:15:31.975Z,33.53
2023-03-29T12:18:38.330Z,35.80
2023-03-29T12:21:13.364Z,34.15
2023-03-29T12:23:43.468Z,35.05
2023-03-29T12:26:29.667Z,32.56
2023-03-29T12:29:19.005Z,34.87
2023-03-29T12:31:58.685Z,31.27
2023-03-29T12:34:35.501Z,31.56
2023-03-29T12:37:18.519Z,32.92
2023-03-29T12:39:47.110Z,33.54
2023-03-29T12:42:21.116Z,33.94
2023-03-29T12:44:58.815Z,31.44
2023-03-29T12:47:32.994Z,31.66
2023-03-29T12:50:01.852Z,33.20
2023-03-29T12:52:36.434Z,33.28
2023-03-29T12:55:21.352Z,31.63
2023-03-29T12:58:08.444Z,31.41
2023-03-29T13:00:36.383Z,32.88
2023-03-29T13:03:20.907Z,33.82
2023-03-29T13:06:00.796Z,32.38
2023-03-29T13:08:42.472Z,31.27
2023-03-29T13:11:35.861Z,32.72
2023-03-29T13:14:14.859Z,31.04
2023-03-29T13:16:43.338Z,30.44
2023-03-29T13:19:20.219Z,31.59
2023-03-29T13:21:57.194Z,29.07
2023-03-29T13:24:44.005Z,31.79
2023-03-29T13:27:18.422Z,31.59
2023-03-29T13:30:24.103Z,30.46
2023-03-29T13:33:27.280Z,30.54
2023-03-29T13:36:07.373Z,31.17
2023-03-29T13:38:54.260Z,30.44
2023-03-29T13:41:40.361Z,29.76
2023-03-29T13:44:44.545Z,31.14
2023-03-29T13:47:35.738Z,32.88
2023-03-29T13:50:12.695Z,31.70
2023-03-29T13:53:06.162Z,31.43
2023-03-29T13:55:43.182Z,32.56
2023-03-29T13:58:19.654Z,32.18
2023-03-29T14:01:01.901Z,32.18
2023-03-29T14:03:38.612Z,32.48
2023-03-29T14:06:07.393Z,32.03
2023-03-29T14:08:41.222Z,31.40
2023-03-29T14:11:23.234Z,32.69
2023-03-29T14:14:00.193Z,33.38
2023-03-29T14:16:36.159Z,33.11
2023-03-29T14:19:40.270Z,33.20
2023-03-29T14:22:13.221Z,33.20
2023-03-29T14:24:50.230Z,33.65
2023-03-29T14:27:19.735Z,34.12
2023-03-29T14:29:49.918Z,33.60
2023-03-29T14:32:28.444Z,33.50
2023-03-29T14:34:57.195Z,32.63
2023-03-29T14:37:29.185Z,31.21
2023-03-29T14:39:59.059Z,32.03
2023-03-29T14:42:29.283Z,31.16
2023-03-29T14:45:02.277Z,30.92
2023-03-29T14:47:33.066Z,31.26
2023-03-29T14:50:01.870Z,31.42
2023-03-29T14:52:31.376Z,32.74
2023-03-29T14:55:02.081Z,30.89
2023-03-29T14:57:36.525Z,32.37
2023-03-29T15:00:27.006Z,33.42
2023-03-29T15:02:58.559Z,33.10
2023-03-29T15:05:39.651Z,32.62
2023-03-29T15:08:13.373Z,32.64
2023-03-29T15:10:44.851Z,31.87
2023-03-29T15:13:19.855Z,33.00
2023-03-29T15:15:52.708Z,33.28
2023-03-29T15:18:27.573Z,32.87
2023-03-29T15:20:55.717Z,33.08
2023-03-29T15:23:25.728Z,33.73
2023-03-29T15:25:59.310Z,33.71
2023-03-29T15:28:31.299Z,34.00
2023-03-29T15:31:10.302Z,33.68
2023-03-29T15:33:40.683Z,33.98
2023-03-29T15:36:11.593Z,33.30
2023-03-29T15:38:44.489Z,33.45
2023-03-29T15:41:14.748Z,33.71
2023-03-29T15:43:43.173Z,33.90
2023-03-29T15:46:14.252Z,34.39
2023-03-29T15:48:43.419Z,34.55
2023-03-29T15:51:12.804Z,34.58
2023-03-29T15:53:44.907Z,34.14
2023-03-29T15:56:20.630Z,33.72
2023-03-29T15:58:49.428Z,34.71
2023-03-29T16:01:34.822Z,34.62
2023-03-29T16:04:06.190Z,34.43
2023-03-29T16:06:34.886Z,34.94
2023-03-29T16:09:04.421Z,35.43
2023-03-29T16:11:33.000Z,35.50
2023-03-29T16:14:01.406Z,35.73
2023-03-29T16:16:29.433Z,35.60
2023-03-29T16:19:00.703Z,35.85
2023-03-29T16:21:29.697Z,36.59
2023-03-29T16:23:58.056Z,36.35
2023-03-29T16:26:26.437Z,36.74
2023-03-29T16:28:55.556Z,37.04
2023-03-29T16:31:26.027Z,37.57
2023-03-29T16:33:54.229Z,37.71
2023-03-29T16:36:22.403Z,38.22
2023-03-29T16:38:50.393Z,38.34
2023-03-29T16:41:18.256Z,38.76
2023-03-29T16:43:46.325Z,38.81
2023-03-29T16:46:14.419Z,39.11
2023-03-29T16:48:42.484Z,38.69
2023-03-29T16:51:10.966Z,38.88
2023-03-29T16:53:38.924Z,39.56
2023-03-29T16:56:07.988Z,40.11
2023-03-29T16:58:35.752Z,40.04
2023-03-29T17:01:12.016Z,40.40
2023-03-29T17:03:41.052Z,40.61
2023-03-29T17:06:11.611Z,40.88
2023-03-29T17:08:39.783Z,41.17
2023-03-29T17:11:07.697Z,41.60
2023-03-29T17:13:35.614Z,41.28
2023-03-29T17:16:04.001Z,41.61
2023-03-29T17:18:32.034Z,41.69
2023-03-29T17:21:00.803Z,42.32
2023-03-29T17:23:29.490Z,42.38
2023-03-29T17:25:57.342Z,42.88
2023-03-29T17:28:25.416Z,43.68
2023-03-29T17:30:53.305Z,43.93
2023-03-29T17:33:22.847Z,44.07
2023-03-29T17:35:52.138Z,44.55
2023-03-29T17:38:20.158Z,44.94
2023-03-29T17:40:58.368Z,45.30
2023-03-29T17:43:26.360Z,45.49
2023-03-29T17:45:54.911Z,45.73
2023-03-29T17:48:23.776Z,46.28
2023-03-29T17:50:52.147Z,46.86
2023-03-29T17:53:20.228Z,47.05
2023-03-29T17:55:48.433Z,47.19
2023-03-29T17:58:16.673Z,47.41
2023-03-29T18:00:44.550Z,47.62
2023-03-29T18:03:12.858Z,48.17
2023-03-29T18:05:40.929Z,48.45
2023-03-29T18:08:08.883Z,48.45
2023-03-29T18:10:37.054Z,48.93
2023-03-29T18:13:04.975Z,49.16
2023-03-29T18:15:32.888Z,49.63
2023-03-29T18:18:00.909Z,49.74
2023-03-29T18:20:29.082Z,49.81
2023-03-29T18:22:57.104Z,50.28
2023-03-29T18:25:25.392Z,50.23
2023-03-29T18:27:53.237Z,50.64
2023-03-29T18:30:21.209Z,50.97
2023-03-29T18:32:49.153Z,50.68
2023-03-29T18:35:17.144Z,50.84
2023-03-29T18:37:44.915Z,51.15
2023-03-29T18:40:13.464Z,50.89
2023-03-29T18:42:41.540Z,50.92
2023-03-29T18:45:10.863Z,50.59
2023-03-29T18:47:38.765Z,50.73
2023-03-29T18:50:07.680Z,51.30
2023-03-29T18:52:36.007Z,51.15
2023-03-29T18:55:05.606Z,51.14
2023-03-29T18:57:33.505Z,51.14
2023-03-29T19:00:01.457Z,51.31
2023-03-29T19:02:29.396Z,51.32
2023-03-29T19:04:57.577Z,51.69
2023-03-29T19:07:25.474Z,51.45
2023-03-29T19:09:53.309Z,51.19
2023-03-29T19:12:21.179Z,51.45
2023-03-29T19:14:49.241Z,51.68
2023-03-29T19:17:17.160Z,51.34
2023-03-29T19:19:45.104Z,51.17
2023-03-29T19:22:13.377Z,51.77
2023-03-29T19:24:41.226Z,51.24
2023-03-29T19:27:12.003Z,51.12
2023-03-29T19:29:41.249Z,50.93
2023-03-29T19:32:09.144Z,50.65
2023-03-29T19:34:37.310Z,51.26
2023-03-29T19:37:05.255Z,51.24
2023-03-29T19:39:33.166Z,51.16
2023-03-29T19:42:01.089Z,51.09
2023-03-29T19:44:28.849Z,51.26
2023-03-29T19:46:56.788Z,51.69
2023-03-29T19:49:24.684Z,51.16
2023-03-29T19:51:55.015Z,51.50
2023-03-29T19:54:23.694Z,51.11
2023-03-29T19:56:52.828Z,51.44
2023-03-29T19:59:20.810Z,51.50
2023-03-29T20:01:51.688Z,51.35
2023-03-29T20:04:22.844Z,51.09
2023-03-29T20:06:52.024Z,51.15
2023-03-29T20:09:20.301Z,51.65
2023-03-29T20:11:48.175Z,51.93
2023-03-29T20:14:16.160Z,52.06
2023-03-29T20:16:44.989Z,52.21
2023-03-29T20:19:14.313Z,52.51
2023-03-29T20:21:42.205Z,52.27
2023-03-29T20:24:11.495Z,52.24
2023-03-29T20:26:39.458Z,52.86
2023-03-29T20:29:07.465Z,52.73
2023-03-29T20:31:35.449Z,53.03
2023-03-29T20:34:03.361Z,52.74
2023-03-29T20:36:32.082Z,52.93
2023-03-29T20:39:00.421Z,53.08
2023-03-29T20:41:28.292Z,53.10
2023-03-29T20:44:00.023Z,53.42
2023-03-29T20:46:35.042Z,53.65
2023-03-29T20:49:05.149Z,53.64
2023-03-29T20:51:33.705Z,53.42
2023-03-29T20:54:04.768Z,53.96
2023-03-29T20:56:38.982Z,53.57
2023-03-29T20:59:10.859Z,53.84
2023-03-29T21:01:42.521Z,53.80
2023-03-29T21:04:11.189Z,53.87
2023-03-29T21:06:41.768Z,54.04
2023-03-29T21:09:09.520Z,53.94
2023-03-29T21:11:37.497Z,54.67
2023-03-29T21:14:05.358Z,54.65
2023-03-29T21:16:33.222Z,54.90
2023-03-29T21:19:01.127Z,55.76
2023-03-29T21:21:29.785Z,55.24
2023-03-29T21:23:57.638Z,55.26
2023-03-29T21:26:26.218Z,55.50
2023-03-29T21:28:54.034Z,55.45
2023-03-29T21:31:21.854Z,55.71
2023-03-29T21:33:49.778Z,55.88
2023-03-29T21:36:17.628Z,56.02
2023-03-29T21:38:46.044Z,55.94
2023-03-29T21:41:14.043Z,56.02
2023-03-29T21:43:42.256Z,55.91
2023-03-29T21:46:10.243Z,56.69
2023-03-29T21:48:38.131Z,56.81
2023-03-29T21:51:07.169Z,55.98
2023-03-29T21:53:35.547Z,56.65
2023-03-29T21:56:03.783Z,56.89
2023-03-29T21:58:31.759Z,56.91
2023-03-29T22:01:02.584Z,56.66
2023-03-29T22:03:30.874Z,56.72
2023-03-29T22:06:01.457Z,56.85
2023-03-29T22:08:30.877Z,57.03
2023-03-29T22:10:58.866Z,56.85
2023-03-29T22:13:28.777Z,57.98
2023-03-29T22:16:03.729Z,57.51
2023-03-29T22:18:46.843Z,56.77
2023-03-29T22:21:24.779Z,56.19
2023-03-29T22:23:54.261Z,56.55
2023-03-29T22:26:25.171Z,56.72
2023-03-29T22:28:54.078Z,56.99
2023-03-29T22:31:23.515Z,56.95
2023-03-29T22:33:51.737Z,56.57
2023-03-29T22:36:28.311Z,57.00
2023-03-29T22:38:56.406Z,56.77
2023-03-29T22:41:26.237Z,56.83
2023-03-29T22:43:56.320Z,56.87
2023-03-29T22:46:24.853Z,56.51
2023-03-29T22:48:53.261Z,56.50
2023-03-29T22:51:21.758Z,56.08
2023-03-29T22:53:49.816Z,56.42
2023-03-29T22:56:17.985Z,56.54
2023-03-29T22:58:46.274Z,56.39
2023-03-29T23:01:14.366Z,56.31
2023-03-29T23:03:42.272Z,56.31
2023-03-29T23:06:10.087Z,56.67
2023-03-29T23:08:37.892Z,56.93
2023-03-29T23:11:05.862Z,56.88
2023-03-29T23:13:35.621Z,56.80
2023-03-29T23:16:03.895Z,56.90
2023-03-29T23:18:35.072Z,57.15
2023-03-29T23:21:06.058Z,56.92
2023-03-29T23:23:34.439Z,56.87
2023-03-29T23:26:02.719Z,56.94
2023-03-29T23:28:31.624Z,56.83
2023-03-29T23:31:03.246Z,56.90
2023-03-29T23:33:35.621Z,56.95
2023-03-29T23:36:06.361Z,57.22
2023-03-29T23:38:37.701Z,57.39
2023-03-29T23:41:08.683Z,57.48
2023-03-29T23:43:40.645Z,57.90
2023-03-29T23:46:11.360Z,57.62
2023-03-29T23:48:39.272Z,58.04
2023-03-29T23:51:08.234Z,58.35
2023-03-29T23:53:36.876Z,58.60
2023-03-29T23:56:06.072Z,58.54
2023-03-29T23:58:37.121Z,58.63
